Time;durP1;ratioP1;P1;durP2;ratioP2;P2;SDS_P1;SDS_P2;PMS_P1;PMS_P2;Temp;Humidity;BMP_temperature;BMP_pressure;BME280_temperature;BME280_humidity;BME280_pressure;Samples;Min_cycle;Max_cycle;Signal;HPM_P1;HPM_P2
2019/09/11 00:01:36;;;;;;;2.47;2.27;;;;;;;21.10;53.05;101033.90;;;;-48
2019/09/11 00:04:36;;;;;;;2.33;2.13;;;;;;;21.10;53.05;101033.33;;;;-48
2019/09/11 00:07:36;;;;;;;2.39;2.19;;;;;;;21.09;53.08;101035.34;;;;-49
2019/09/11 00:10:36;;;;;;;2.39;2.19;;;;;;;21.08;53.05;101033.11;;;;-59
2019/09/11 00:13:36;;;;;;;3.17;2.20;;;;;;;21.09;53.02;101040.00;;;;-58
2019/09/11 00:16:36;;;;;;;2.20;2.00;;;;;;;21.07;53.10;101041.02;;;;-58
2019/09/11 00:19:36;;;;;;;2.27;2.07;;;;;;;21.07;53.06;101046.23;;;;-59
2019/09/11 00:22:36;;;;;;;2.22;2.03;;;;;;;21.07;53.06;101043.54;;;;-59
2019/09/11 00:25:36;;;;;;;2.35;2.15;;;;;;;21.07;53.08;101050.48;;;;-58
2019/09/11 00:28:36;;;;;;;2.51;2.17;;;;;;;21.07;53.07;101052.91;;;;-59
2019/09/11 00:31:36;;;;;;;2.23;2.05;;;;;;;21.06;53.02;101047.86;;;;-58
2019/09/11 00:34:36;;;;;;;2.22;2.02;;;;;;;21.05;53.07;101042.55;;;;-59
2019/09/11 00:37:36;;;;;;;2.25;2.05;;;;;;;21.05;53.08;101041.53;;;;-58
2019/09/11 00:40:36;;;;;;;2.29;2.09;;;;;;;21.06;53.06;101046.48;;;;-58
2019/09/11 00:43:36;;;;;;;2.32;2.12;;;;;;;21.03;53.07;101041.44;;;;-58
2019/09/11 00:46:36;;;;;;;2.20;2.00;;;;;;;21.04;53.09;101036.30;;;;-58
2019/09/11 00:49:36;;;;;;;2.86;2.37;;;;;;;21.03;53.11;101036.19;;;;-59
2019/09/11 00:52:36;;;;;;;2.86;2.21;;;;;;;21.02;53.08;101038.54;;;;-59
2019/09/11 00:55:36;;;;;;;2.51;2.12;;;;;;;21.02;53.09;101046.27;;;;-58
2019/09/11 00:58:36;;;;;;;2.26;2.06;;;;;;;21.02;53.11;101044.20;;;;-58
2019/09/11 01:01:36;;;;;;;2.15;2.05;;;;;;;21.03;53.10;101046.03;;;;-59
2019/09/11 01:04:36;;;;;;;2.35;2.15;;;;;;;21.01;53.11;101047.52;;;;-58
2019/09/11 01:07:36;;;;;;;2.33;2.13;;;;;;;21.01;53.10;101046.72;;;;-59
2019/09/11 01:10:36;;;;;;;2.19;2.00;;;;;;;21.01;53.13;101050.64;;;;-58
2019/09/11 01:13:36;;;;;;;2.28;2.11;;;;;;;21.00;53.13;101050.42;;;;-59
2019/09/11 01:16:36;;;;;;;2.21;2.01;;;;;;;21.00;53.10;101051.10;;;;-59
2019/09/11 01:19:36;;;;;;;2.33;2.13;;;;;;;21.00;53.09;101044.32;;;;-58
2019/09/11 01:22:36;;;;;;;2.46;2.25;;;;;;;21.00;53.07;101043.78;;;;-58
2019/09/11 01:25:36;;;;;;;2.29;1.98;;;;;;;20.99;53.10;101042.22;;;;-58
2019/09/11 01:28:36;;;;;;;2.14;1.99;;;;;;;20.99;53.11;101040.30;;;;-58
2019/09/11 01:31:36;;;;;;;2.29;2.10;;;;;;;20.98;53.11;101042.38;;;;-58
2019/09/11 01:34:36;;;;;;;2.15;1.98;;;;;;;20.98;53.09;101040.03;;;;-58
2019/09/11 01:37:36;;;;;;;2.12;1.92;;;;;;;20.98;53.11;101037.06;;;;-59
2019/09/11 01:40:36;;;;;;;2.15;1.98;;;;;;;20.97;53.12;101042.67;;;;-58
2019/09/11 01:43:36;;;;;;;2.30;2.10;;;;;;;20.98;53.08;101039.25;;;;-58
2019/09/11 01:46:36;;;;;;;2.15;2.02;;;;;;;20.97;53.08;101041.05;;;;-57
2019/09/11 01:49:36;;;;;;;2.30;2.10;;;;;;;20.97;53.09;101046.32;;;;-58
2019/09/11 01:52:36;;;;;;;2.13;1.96;;;;;;;20.97;53.09;101050.45;;;;-59
2019/09/11 01:55:36;;;;;;;2.39;2.13;;;;;;;20.97;53.07;101056.16;;;;-59
2019/09/11 01:58:36;;;;;;;2.34;2.11;;;;;;;20.96;53.08;101057.90;;;;-58
2019/09/11 02:01:36;;;;;;;2.21;2.01;;;;;;;20.96;53.14;101057.95;;;;-59
2019/09/11 02:04:36;;;;;;;2.11;2.01;;;;;;;20.96;53.10;101059.08;;;;-58
2019/09/11 02:07:36;;;;;;;2.25;1.95;;;;;;;20.96;53.11;101057.52;;;;-57
2019/09/11 02:10:36;;;;;;;2.03;1.93;;;;;;;20.96;53.08;101054.16;;;;-58
2019/09/11 02:13:35;;;;;;;2.44;2.07;;;;;;;20.95;53.08;101048.00;;;;-58
2019/09/11 02:16:36;;;;;;;2.23;2.03;;;;;;;20.94;53.11;101047.89;;;;-59
2019/09/11 02:19:36;;;;;;;2.26;2.06;;;;;;;20.95;53.10;101049.34;;;;-59
2019/09/11 02:22:36;;;;;;;2.05;1.92;;;;;;;20.95;53.07;101046.99;;;;-59
2019/09/11 02:25:36;;;;;;;2.13;1.93;;;;;;;20.94;53.05;101044.20;;;;-59
2019/09/11 02:28:36;;;;;;;2.43;1.90;;;;;;;20.93;53.08;101045.33;;;;-59
2019/09/11 02:31:36;;;;;;;2.35;2.15;;;;;;;20.93;53.05;101044.82;;;;-59
2019/09/11 02:34:35;;;;;;;2.25;2.05;;;;;;;20.93;53.05;101048.41;;;;-59
2019/09/11 02:37:36;;;;;;;2.30;2.10;;;;;;;20.93;53.04;101051.20;;;;-58
2019/09/11 02:40:36;;;;;;;2.06;1.90;;;;;;;20.93;52.99;101050.99;;;;-58
2019/09/11 02:43:36;;;;;;;2.31;2.11;;;;;;;20.93;53.02;101058.31;;;;-58
2019/09/11 02:46:36;;;;;;;2.35;2.15;;;;;;;20.93;53.00;101064.59;;;;-59
2019/09/11 02:49:36;;;;;;;2.03;1.93;;;;;;;20.92;53.02;101065.22;;;;-59
2019/09/11 02:52:36;;;;;;;2.03;1.93;;;;;;;20.92;53.03;101067.23;;;;-58
2019/09/11 02:55:36;;;;;;;2.21;2.01;;;;;;;20.92;53.00;101071.42;;;;-59
2019/09/11 02:58:36;;;;;;;2.28;2.08;;;;;;;20.91;52.98;101077.47;;;;-58
2019/09/11 03:01:36;;;;;;;2.03;1.91;;;;;;;20.91;53.02;101073.44;;;;-58
2019/09/11 03:04:36;;;;;;;2.30;2.10;;;;;;;20.91;52.97;101075.28;;;;-59
2019/09/11 03:07:36;;;;;;;2.25;2.05;;;;;;;20.90;53.01;101079.67;;;;-59
2019/09/11 03:10:35;;;;;;;2.01;1.91;;;;;;;20.91;53.01;101082.46;;;;-59
2019/09/11 03:13:36;;;;;;;2.39;2.19;;;;;;;20.91;52.99;101086.94;;;;-58
2019/09/11 03:16:36;;;;;;;2.30;2.10;;;;;;;20.89;52.97;101087.61;;;;-59
2019/09/11 03:19:36;;;;;;;2.32;2.12;;;;;;;20.90;52.96;101090.92;;;;-59
2019/09/11 03:22:36;;;;;;;2.32;2.09;;;;;;;20.89;52.95;101092.20;;;;-59
2019/09/11 03:25:36;;;;;;;2.20;2.00;;;;;;;20.89;52.98;101091.88;;;;-58
2019/09/11 03:28:35;;;;;;;2.48;2.09;;;;;;;20.89;52.93;101090.20;;;;-59
2019/09/11 03:31:36;;;;;;;2.35;2.15;;;;;;;20.89;52.98;101093.38;;;;-58
2019/09/11 03:34:36;;;;;;;2.16;2.03;;;;;;;20.88;52.94;101101.16;;;;-58
2019/09/11 03:37:36;;;;;;;2.55;1.98;;;;;;;20.87;52.95;101107.06;;;;-58
2019/09/11 03:40:36;;;;;;;2.15;2.00;;;;;;;20.88;52.95;101113.58;;;;-59
2019/09/11 03:43:36;;;;;;;2.38;2.18;;;;;;;20.88;52.99;101116.94;;;;-59
2019/09/11 03:46:36;;;;;;;2.21;2.03;;;;;;;20.87;52.96;101115.84;;;;-58
2019/09/11 03:49:36;;;;;;;2.29;2.09;;;;;;;20.88;52.92;101126.41;;;;-59
2019/09/11 03:52:36;;;;;;;2.27;2.09;;;;;;;20.87;52.91;101132.97;;;;-58
2019/09/11 03:55:36;;;;;;;2.17;2.04;;;;;;;20.88;52.90;101135.88;;;;-57
2019/09/11 03:58:36;;;;;;;2.21;2.03;;;;;;;20.86;52.93;101135.42;;;;-58
2019/09/11 04:01:36;;;;;;;2.31;2.11;;;;;;;20.86;52.92;101139.23;;;;-59
2019/09/11 04:04:36;;;;;;;2.11;2.00;;;;;;;20.86;52.93;101138.46;;;;-58
2019/09/11 04:07:36;;;;;;;2.89;1.95;;;;;;;20.85;52.90;101141.14;;;;-58
2019/09/11 04:10:36;;;;;;;2.16;2.01;;;;;;;20.84;52.86;101145.96;;;;-58
2019/09/11 04:13:36;;;;;;;2.23;2.03;;;;;;;20.86;52.88;101151.55;;;;-59
2019/09/11 04:16:36;;;;;;;2.17;2.01;;;;;;;20.85;52.86;101152.83;;;;-59
2019/09/11 04:19:36;;;;;;;2.03;1.91;;;;;;;20.84;52.85;101150.94;;;;-58
2019/09/11 04:22:36;;;;;;;2.61;2.09;;;;;;;20.84;52.87;101151.94;;;;-58
2019/09/11 04:25:36;;;;;;;2.00;1.89;;;;;;;20.84;52.81;101154.45;;;;-59
2019/09/11 04:28:36;;;;;;;3.42;2.11;;;;;;;20.84;52.80;101157.14;;;;-59
2019/09/11 04:31:36;;;;;;;2.11;1.92;;;;;;;20.84;52.80;101165.16;;;;-58
2019/09/11 04:34:36;;;;;;;2.24;2.00;;;;;;;20.85;52.82;101174.34;;;;-59
2019/09/11 04:37:36;;;;;;;2.22;2.06;;;;;;;20.83;52.88;101171.59;;;;-58
2019/09/11 04:40:36;;;;;;;2.25;2.08;;;;;;;20.83;52.85;101176.06;;;;-58
2019/09/11 04:43:36;;;;;;;2.19;2.01;;;;;;;20.83;52.87;101176.30;;;;-59
2019/09/11 04:46:36;;;;;;;2.35;2.06;;;;;;;20.83;52.84;101184.92;;;;-59
2019/09/11 04:49:36;;;;;;;2.15;1.97;;;;;;;20.83;52.85;101188.45;;;;-58
2019/09/11 04:52:36;;;;;;;2.21;2.08;;;;;;;20.82;52.85;101188.77;;;;-58
2019/09/11 04:55:36;;;;;;;1.97;1.87;;;;;;;20.82;52.84;101194.00;;;;-59
2019/09/11 04:58:36;;;;;;;2.83;2.01;;;;;;;20.82;52.87;101191.92;;;;-59
2019/09/11 05:01:36;;;;;;;2.09;1.96;;;;;;;20.82;52.88;101198.13;;;;-58
2019/09/11 05:04:35;;;;;;;2.17;2.00;;;;;;;20.82;52.88;101201.56;;;;-58
2019/09/11 05:07:35;;;;;;;2.20;2.00;;;;;;;20.81;52.87;101204.53;;;;-59
2019/09/11 05:10:36;;;;;;;2.02;1.90;;;;;;;20.81;52.89;101211.89;;;;-59
2019/09/11 05:13:36;;;;;;;2.19;1.99;;;;;;;20.81;52.86;101208.55;;;;-58
2019/09/11 05:16:36;;;;;;;2.20;2.00;;;;;;;20.81;52.91;101218.00;;;;-58
2019/09/11 05:19:36;;;;;;;2.10;2.00;;;;;;;20.82;52.87;101220.19;;;;-59
2019/09/11 05:22:36;;;;;;;2.10;2.00;;;;;;;20.81;52.85;101217.33;;;;-57
2019/09/11 05:25:36;;;;;;;2.33;1.90;;;;;;;20.81;52.86;101217.33;;;;-58
2019/09/11 05:28:36;;;;;;;1.96;1.86;;;;;;;20.81;52.89;101220.08;;;;-59
2019/09/11 05:31:36;;;;;;;2.09;1.89;;;;;;;20.79;52.90;101220.55;;;;-59
2019/09/11 05:34:36;;;;;;;1.99;1.89;;;;;;;20.80;52.91;101226.27;;;;-59
2019/09/11 05:37:36;;;;;;;2.11;2.01;;;;;;;20.80;52.95;101228.69;;;;-59
2019/09/11 05:40:35;;;;;;;2.14;2.04;;;;;;;20.79;52.95;101234.75;;;;-58
2019/09/11 05:43:35;;;;;;;1.90;1.80;;;;;;;20.80;52.94;101233.56;;;;-59
2019/09/11 05:46:36;;;;;;;2.19;1.99;;;;;;;20.79;52.95;101229.89;;;;-59
2019/09/11 05:49:36;;;;;;;2.00;1.90;;;;;;;20.79;52.93;101229.05;;;;-58
2019/09/11 05:52:36;;;;;;;2.22;2.02;;;;;;;20.79;52.95;101233.25;;;;-58
2019/09/11 05:55:36;;;;;;;2.11;2.00;;;;;;;20.80;52.96;101237.52;;;;-58
2019/09/11 05:58:35;;;;;;;2.13;1.93;;;;;;;20.79;52.93;101234.25;;;;-59
2019/09/11 06:01:35;;;;;;;2.08;1.98;;;;;;;20.79;52.96;101233.64;;;;-58
2019/09/11 06:04:36;;;;;;;2.10;1.90;;;;;;;20.79;52.93;101238.01;;;;-59
2019/09/11 06:07:36;;;;;;;1.99;1.86;;;;;;;20.78;52.97;101240.41;;;;-59
2019/09/11 06:10:36;;;;;;;2.01;1.85;;;;;;;20.79;52.96;101245.22;;;;-59
2019/09/11 06:13:36;;;;;;;2.71;1.95;;;;;;;20.78;52.99;101245.23;;;;-59
2019/09/11 06:16:35;;;;;;;1.90;1.80;;;;;;;20.79;52.95;101245.55;;;;-58
2019/09/11 06:19:35;;;;;;;2.03;1.89;;;;;;;20.77;52.95;101245.30;;;;-58
2019/09/11 06:22:36;;;;;;;2.16;1.96;;;;;;;20.78;52.95;101244.17;;;;-59
2019/09/11 06:25:36;;;;;;;2.06;1.91;;;;;;;20.78;52.98;101244.00;;;;-59
2019/09/11 06:28:36;;;;;;;2.10;1.96;;;;;;;20.79;52.94;101252.61;;;;-59
2019/09/11 06:31:36;;;;;;;2.09;1.84;;;;;;;20.78;52.96;101257.27;;;;-59
2019/09/11 06:34:36;;;;;;;2.29;2.01;;;;;;;20.77;52.94;101258.11;;;;-59
2019/09/11 06:37:36;;;;;;;2.24;2.05;;;;;;;20.77;52.96;101262.36;;;;-58
2019/09/11 06:40:36;;;;;;;2.17;1.92;;;;;;;20.77;52.97;101262.75;;;;-58
2019/09/11 06:43:36;;;;;;;1.95;1.79;;;;;;;20.78;52.96;101260.78;;;;-58
2019/09/11 06:46:36;;;;;;;1.93;1.80;;;;;;;20.77;53.00;101263.92;;;;-58
2019/09/11 06:49:36;;;;;;;2.20;2.00;;;;;;;20.77;52.98;101269.47;;;;-59
2019/09/11 06:52:36;;;;;;;2.87;1.99;;;;;;;20.77;52.96;101277.02;;;;-59
2019/09/11 06:55:35;;;;;;;2.11;1.95;;;;;;;20.77;52.98;101283.05;;;;-48
2019/09/11 06:58:35;;;;;;;3.15;1.90;;;;;;;20.77;52.97;101292.29;;;;-48
2019/09/11 07:01:36;;;;;;;2.17;1.97;;;;;;;20.77;53.01;101299.00;;;;-49
2019/09/11 07:04:36;;;;;;;2.20;2.00;;;;;;;20.77;52.99;101298.67;;;;-50
2019/09/11 07:07:36;;;;;;;2.21;2.01;;;;;;;20.76;52.98;101300.08;;;;-48
2019/09/11 07:10:36;;;;;;;2.25;1.91;;;;;;;20.77;53.01;101302.60;;;;-48
2019/09/11 07:13:35;;;;;;;2.19;1.99;;;;;;;20.77;52.98;101304.37;;;;-48
2019/09/11 07:16:35;;;;;;;2.41;2.06;;;;;;;20.76;52.99;101304.33;;;;-48
2019/09/11 07:19:36;;;;;;;2.21;2.01;;;;;;;20.76;53.00;101306.34;;;;-48
2019/09/11 07:22:36;;;;;;;2.30;2.10;;;;;;;20.75;53.00;101310.43;;;;-48
2019/09/11 07:25:36;;;;;;;3.33;2.07;;;;;;;20.76;52.99;101315.41;;;;-48
2019/09/11 07:28:36;;;;;;;2.20;1.82;;;;;;;20.76;52.97;101317.53;;;;-48
2019/09/11 07:31:35;;;;;;;2.06;1.90;;;;;;;20.76;53.00;101319.61;;;;-48
2019/09/11 07:34:35;;;;;;;2.05;1.85;;;;;;;20.76;53.01;101326.89;;;;-49
2019/09/11 07:37:35;;;;;;;2.18;1.98;;;;;;;20.76;53.01;101336.62;;;;-48
2019/09/11 07:40:36;;;;;;;2.35;1.98;;;;;;;20.75;53.02;101337.08;;;;-48
2019/09/11 07:43:36;;;;;;;2.18;1.98;;;;;;;20.75;53.00;101338.47;;;;-50
2019/09/11 07:46:36;;;;;;;2.16;1.94;;;;;;;20.76;53.01;101337.39;;;;-48
2019/09/11 07:49:35;;;;;;;2.82;2.04;;;;;;;20.75;53.01;101336.74;;;;-48
2019/09/11 07:52:35;;;;;;;2.33;2.08;;;;;;;20.75;53.01;101337.25;;;;-48
2019/09/11 07:55:36;;;;;;;2.30;2.10;;;;;;;20.76;52.98;101341.42;;;;-48
2019/09/11 07:58:36;;;;;;;2.19;1.90;;;;;;;20.75;53.06;101340.37;;;;-48
2019/09/11 08:01:36;;;;;;;2.21;2.01;;;;;;;20.75;53.04;101344.80;;;;-51
2019/09/11 08:04:36;;;;;;;8.16;4.13;;;;;;;20.71;51.71;101343.62;;;;-48
2019/09/11 08:07:36;;;;;;;12.68;4.99;;;;;;;20.59;51.02;101342.91;;;;-47
2019/09/11 08:10:35;;;;;;;11.45;4.75;;;;;;;20.59;51.27;101341.73;;;;-46
2019/09/11 08:13:36;;;;;;;11.05;4.57;;;;;;;20.62;51.57;101342.91;;;;-44
2019/09/11 08:16:36;;;;;;;13.47;4.59;;;;;;;20.66;51.81;101342.18;;;;-47
2019/09/11 08:19:36;;;;;;;11.03;4.23;;;;;;;20.72;52.19;101345.75;;;;-46
2019/09/11 08:22:36;;;;;;;8.02;3.79;;;;;;;20.73;52.15;101342.73;;;;-48
2019/09/11 08:25:36;;;;;;;9.07;4.26;;;;;;;20.76;52.25;101343.27;;;;-46
2019/09/11 08:28:35;;;;;;;10.34;3.83;;;;;;;20.76;52.41;101339.02;;;;-53
2019/09/11 08:31:35;;;;;;;11.52;3.83;;;;;;;20.78;52.52;101344.33;;;;-47
2019/09/11 08:34:36;;;;;;;7.51;3.57;;;;;;;20.80;52.69;101343.09;;;;-50
2019/09/11 08:37:36;;;;;;;8.20;3.58;;;;;;;20.82;52.66;101343.80;;;;-50
2019/09/11 08:40:36;;;;;;;7.67;3.63;;;;;;;20.85;52.68;101341.38;;;;-49
2019/09/11 08:43:36;;;;;;;6.57;3.55;;;;;;;20.86;52.75;101340.09;;;;-46
2019/09/11 08:46:35;;;;;;;7.99;3.18;;;;;;;20.88;52.83;101341.66;;;;-44
2019/09/11 08:49:35;;;;;;;7.33;3.37;;;;;;;20.89;52.89;101341.55;;;;-46
2019/09/11 08:52:35;;;;;;;5.06;3.41;;;;;;;20.89;52.93;101344.84;;;;-45
2019/09/11 08:55:35;;;;;;;6.58;3.27;;;;;;;20.90;52.89;101344.13;;;;-50
2019/09/11 08:58:36;;;;;;;8.82;3.18;;;;;;;20.92;52.97;101346.81;;;;-52
2019/09/11 09:01:36;;;;;;;5.86;3.27;;;;;;;20.92;53.05;101341.22;;;;-47
2019/09/11 09:04:36;;;;;;;7.97;3.21;;;;;;;20.95;53.05;101339.02;;;;-47
2019/09/11 09:07:35;;;;;;;8.70;3.40;;;;;;;20.95;53.02;101334.93;;;;-44
2019/09/11 09:10:36;;;;;;;7.76;3.23;;;;;;;20.96;52.93;101334.20;;;;-45
2019/09/11 09:13:36;;;;;;;6.23;3.21;;;;;;;20.95;52.94;101331.23;;;;-44
2019/09/11 09:16:36;;;;;;;5.85;3.10;;;;;;;20.96;52.92;101324.45;;;;-44
2019/09/11 09:19:36;;;;;;;7.59;3.11;;;;;;;20.95;52.92;101324.18;;;;-44
2019/09/11 09:22:35;;;;;;;6.92;3.03;;;;;;;20.95;52.86;101327.77;;;;-44
2019/09/11 09:25:35;;;;;;;7.64;3.03;;;;;;;20.96;52.92;101330.84;;;;-47
2019/09/11 09:28:35;;;;;;;6.18;3.09;;;;;;;20.96;52.87;101332.92;;;;-47
2019/09/11 09:31:35;;;;;;;9.13;3.33;;;;;;;20.96;53.00;101336.88;;;;-45
2019/09/11 09:34:35;;;;;;;6.77;3.12;;;;;;;20.98;53.00;101335.04;;;;-47
2019/09/11 09:37:36;;;;;;;5.87;3.09;;;;;;;20.99;53.06;101334.09;;;;-48
2019/09/11 09:40:36;;;;;;;7.35;3.00;;;;;;;20.99;53.09;101332.07;;;;-46
2019/09/11 09:43:35;;;;;;;5.83;2.91;;;;;;;21.01;53.05;101329.16;;;;-46
2019/09/11 09:46:35;;;;;;;11.43;2.99;;;;;;;21.02;53.04;101328.20;;;;-47
2019/09/11 09:49:35;;;;;;;7.07;2.82;;;;;;;21.01;53.17;101326.91;;;;-48
2019/09/11 09:52:36;;;;;;;5.59;2.76;;;;;;;21.00;53.08;101325.00;;;;-48
2019/09/11 09:55:36;;;;;;;6.05;3.14;;;;;;;21.01;53.14;101321.86;;;;-45
2019/09/11 09:58:36;;;;;;;9.43;2.97;;;;;;;21.04;53.12;101321.31;;;;-48
2019/09/11 10:01:35;;;;;;;7.03;2.95;;;;;;;21.04;53.10;101318.63;;;;-43
2019/09/11 10:04:35;;;;;;;9.89;3.18;;;;;;;21.05;53.17;101320.16;;;;-43
2019/09/11 10:07:35;;;;;;;4.81;2.89;;;;;;;21.07;53.13;101322.45;;;;-45
2019/09/11 10:10:35;;;;;;;5.85;3.01;;;;;;;21.09;53.13;101329.27;;;;-44
2019/09/11 10:13:36;;;;;;;6.86;2.81;;;;;;;21.10;53.15;101324.95;;;;-47
2019/09/11 10:16:36;;;;;;;4.45;2.63;;;;;;;21.13;53.08;101319.92;;;;-47
2019/09/11 10:19:35;;;;;;;7.33;2.71;;;;;;;21.12;53.12;101316.62;;;;-48
2019/09/11 10:22:35;;;;;;;9.04;3.11;;;;;;;21.14;53.17;101314.81;;;;-47
2019/09/11 10:25:35;;;;;;;3.63;2.67;;;;;;;21.16;53.11;101312.73;;;;-46
2019/09/11 10:28:35;;;;;;;5.77;2.75;;;;;;;21.17;53.11;101316.81;;;;-47
2019/09/11 10:31:36;;;;;;;6.23;2.80;;;;;;;21.16;53.15;101316.59;;;;-53
2019/09/11 10:34:36;;;;;;;5.19;2.59;;;;;;;21.18;53.13;101312.83;;;;-58
2019/09/11 10:37:35;;;;;;;4.61;2.87;;;;;;;21.18;53.12;101305.95;;;;-57
2019/09/11 10:40:35;;;;;;;7.07;2.53;;;;;;;21.18;53.08;101299.13;;;;-58
2019/09/11 10:43:35;;;;;;;4.01;2.71;;;;;;;21.19;53.19;101296.83;;;;-55
2019/09/11 10:46:35;;;;;;;3.37;2.61;;;;;;;21.20;53.18;101299.22;;;;-56
2019/09/11 10:49:35;;;;;;;4.33;2.65;;;;;;;21.21;53.11;101293.97;;;;-57
2019/09/11 10:52:36;;;;;;;4.69;2.59;;;;;;;21.21;53.15;101286.51;;;;-57
2019/09/11 10:55:35;;;;;;;5.17;2.70;;;;;;;21.20;53.20;101288.20;;;;-57
2019/09/11 10:58:35;;;;;;;5.61;2.64;;;;;;;21.21;53.18;101285.16;;;;-57
2019/09/11 11:01:35;;;;;;;5.61;2.46;;;;;;;21.22;53.14;101279.91;;;;-57
2019/09/11 11:04:35;;;;;;;10.25;2.86;;;;;;;21.23;53.16;101286.16;;;;-57
2019/09/11 11:07:36;;;;;;;5.63;2.47;;;;;;;21.20;53.20;101283.27;;;;-57
2019/09/11 11:10:36;;;;;;;3.57;2.62;;;;;;;21.20;53.16;101279.08;;;;-56
2019/09/11 11:13:36;;;;;;;4.69;2.83;;;;;;;21.19;53.18;101282.27;;;;-57
2019/09/11 11:16:35;;;;;;;4.02;2.53;;;;;;;21.17;53.18;101285.97;;;;-53
2019/09/11 11:19:35;;;;;;;4.71;2.45;;;;;;;21.17;53.18;101286.48;;;;-54
2019/09/11 11:22:35;;;;;;;3.51;2.49;;;;;;;21.17;53.13;101287.58;;;;-54
2019/09/11 11:25:35;;;;;;;3.24;2.45;;;;;;;21.15;53.13;101285.59;;;;-52
2019/09/11 11:28:35;;;;;;;2.80;2.40;;;;;;;21.14;53.09;101291.36;;;;-53
2019/09/11 11:31:36;;;;;;;4.70;2.74;;;;;;;21.14;53.08;101292.03;;;;-53
2019/09/11 11:34:35;;;;;;;4.51;2.53;;;;;;;21.14;53.04;101288.00;;;;-54
2019/09/11 11:37:35;;;;;;;3.13;2.55;;;;;;;21.14;53.09;101293.94;;;;-57
2019/09/11 11:40:35;;;;;;;5.45;2.39;;;;;;;21.12;53.03;101298.64;;;;-57
2019/09/11 11:43:35;;;;;;;5.01;2.33;;;;;;;21.11;52.96;101301.89;;;;-57
2019/09/11 11:46:36;;;;;;;3.68;2.48;;;;;;;21.13;52.99;101301.28;;;;-57
2019/09/11 11:49:36;;;;;;;3.23;2.39;;;;;;;21.13;52.94;101296.95;;;;-57
2019/09/11 11:52:36;;;;;;;2.74;2.19;;;;;;;21.13;52.93;101294.84;;;;-58
2019/09/11 11:55:35;;;;;;;2.85;2.27;;;;;;;21.12;52.93;101292.94;;;;-56
2019/09/11 11:58:35;;;;;;;4.43;2.33;;;;;;;21.14;52.94;101290.52;;;;-57
2019/09/11 12:01:35;;;;;;;5.03;2.51;;;;;;;21.13;52.97;101285.37;;;;-59
2019/09/11 12:04:35;;;;;;;4.62;2.33;;;;;;;21.15;52.98;101285.19;;;;-53
2019/09/11 12:07:36;;;;;;;4.98;2.42;;;;;;;21.15;53.02;101281.61;;;;-52
2019/09/11 12:10:36;;;;;;;3.61;2.51;;;;;;;21.17;53.04;101278.52;;;;-54
2019/09/11 12:13:35;;;;;;;3.93;2.67;;;;;;;21.17;53.09;101277.23;;;;-56
2019/09/11 12:16:35;;;;;;;2.73;2.45;;;;;;;21.17;53.11;101274.89;;;;-56
2019/09/11 12:19:35;;;;;;;3.90;2.51;;;;;;;21.20;53.08;101273.86;;;;-50
2019/09/11 12:22:36;;;;;;;5.72;2.42;;;;;;;21.18;53.06;101274.44;;;;-53
2019/09/11 12:25:36;;;;;;;2.87;2.29;;;;;;;21.20;53.11;101280.41;;;;-45
2019/09/11 12:28:36;;;;;;;4.39;2.65;;;;;;;21.20;53.06;101278.39;;;;-46
2019/09/11 12:31:35;;;;;;;5.04;2.59;;;;;;;21.20;53.05;101273.92;;;;-45
2019/09/11 12:34:35;;;;;;;3.86;2.43;;;;;;;21.18;53.03;101280.20;;;;-46
2019/09/11 12:37:35;;;;;;;3.04;2.42;;;;;;;21.18;53.02;101272.92;;;;-46
2019/09/11 12:40:35;;;;;;;4.47;2.55;;;;;;;21.19;52.99;101272.52;;;;-47
2019/09/11 12:43:35;;;;;;;4.21;2.29;;;;;;;21.17;52.95;101267.33;;;;-47
2019/09/11 12:46:36;;;;;;;3.79;2.31;;;;;;;21.17;52.98;101268.84;;;;-47
2019/09/11 12:49:35;;;;;;;4.34;2.26;;;;;;;21.18;52.93;101269.06;;;;-47
2019/09/11 12:52:35;;;;;;;3.89;2.21;;;;;;;21.18;52.92;101263.06;;;;-47
2019/09/11 12:55:36;;;;;;;3.29;2.33;;;;;;;21.16;52.91;101266.27;;;;-47
2019/09/11 12:58:35;;;;;;;3.54;2.41;;;;;;;21.15;52.94;101263.20;;;;-52
2019/09/11 13:01:35;;;;;;;3.40;2.35;;;;;;;21.17;52.91;101254.89;;;;-52
2019/09/11 13:04:35;;;;;;;2.62;2.17;;;;;;;21.16;52.91;101263.01;;;;-52
2019/09/11 13:07:36;;;;;;;2.95;2.25;;;;;;;21.16;52.91;101260.38;;;;-51
2019/09/11 13:10:35;;;;;;;2.97;2.20;;;;;;;21.15;52.89;101261.17;;;;-46
2019/09/11 13:13:35;;;;;;;9.60;2.48;;;;;;;21.16;52.93;101260.55;;;;-50
2019/09/11 13:16:35;;;;;;;2.86;2.42;;;;;;;21.17;52.89;101254.22;;;;-48
2019/09/11 13:19:35;;;;;;;3.53;2.32;;;;;;;21.17;52.93;101255.73;;;;-48
2019/09/11 13:22:36;;;;;;;4.01;2.26;;;;;;;21.16;53.14;101251.32;;;;-57
2019/09/11 13:25:35;;;;;;;3.67;2.31;;;;;;;21.19;53.11;101249.69;;;;-57
2019/09/11 13:28:35;;;;;;;5.24;2.35;;;;;;;21.19;53.09;101257.07;;;;-56
2019/09/11 13:31:35;;;;;;;4.09;2.15;;;;;;;21.19;53.17;101258.86;;;;-60
2019/09/11 13:34:35;;;;;;;2.93;2.26;;;;;;;21.21;53.26;101252.47;;;;-60
2019/09/11 13:37:35;;;;;;;4.51;2.40;;;;;;;21.23;53.21;101249.72;;;;-57
2019/09/11 13:40:36;;;;;;;3.08;2.37;;;;;;;21.23;53.22;101245.28;;;;-56
2019/09/11 13:43:36;;;;;;;2.48;2.20;;;;;;;21.24;53.27;101243.55;;;;-56
2019/09/11 13:46:35;;;;;;;3.57;2.15;;;;;;;21.26;53.24;101244.09;;;;-55
2019/09/11 13:49:35;;;;;;;4.40;2.45;;;;;;;21.27;53.28;101235.62;;;;-57
2019/09/11 13:52:35;;;;;;;3.27;2.17;;;;;;;21.26;53.32;101236.09;;;;-57
2019/09/11 13:55:35;;;;;;;3.63;2.23;;;;;;;21.26;53.37;101238.21;;;;-50
2019/09/11 13:58:35;;;;;;;3.35;2.19;;;;;;;21.28;53.29;101244.48;;;;-47
2019/09/11 14:01:35;;;;;;;4.31;2.29;;;;;;;21.28;53.35;101246.00;;;;-49
2019/09/11 14:04:35;;;;;;;5.55;2.21;;;;;;;21.29;53.38;101246.66;;;;-48
2019/09/11 14:07:35;;;;;;;3.54;2.25;;;;;;;21.29;53.45;101248.50;;;;-45
2019/09/11 14:10:35;;;;;;;3.17;2.20;;;;;;;21.30;53.41;101253.93;;;;-46
2019/09/11 14:13:35;;;;;;;3.03;2.10;;;;;;;21.30;53.41;101265.62;;;;-50
2019/09/11 14:16:35;;;;;;;4.06;2.18;;;;;;;21.31;53.44;101265.91;;;;-48
2019/09/11 14:19:35;;;;;;;4.21;2.44;;;;;;;21.32;53.36;101266.46;;;;-50
2019/09/11 14:22:35;;;;;;;3.73;2.29;;;;;;;21.32;53.35;101270.60;;;;-44
2019/09/11 14:25:35;;;;;;;3.90;2.23;;;;;;;21.32;53.35;101266.56;;;;-45
2019/09/11 14:28:35;;;;;;;5.90;2.49;;;;;;;21.35;53.39;101267.72;;;;-47
2019/09/11 14:31:35;;;;;;;4.55;2.31;;;;;;;21.37;53.46;101270.41;;;;-48
2019/09/11 14:34:35;;;;;;;8.06;2.30;;;;;;;21.36;53.39;101269.19;;;;-49
2019/09/11 14:37:35;;;;;;;6.90;2.34;;;;;;;21.36;53.33;101272.71;;;;-49
2019/09/11 14:40:35;;;;;;;6.41;2.23;;;;;;;21.38;53.41;101275.00;;;;-51
2019/09/11 14:43:35;;;;;;;3.39;2.23;;;;;;;21.37;53.38;101285.80;;;;-51
2019/09/11 14:46:35;;;;;;;3.82;2.31;;;;;;;21.39;53.40;101284.90;;;;-44
2019/09/11 14:49:35;;;;;;;3.97;2.36;;;;;;;21.39;53.30;101283.62;;;;-45
2019/09/11 14:52:35;;;;;;;5.79;2.41;;;;;;;21.40;53.20;101284.34;;;;-51
2019/09/11 14:55:35;;;;;;;3.73;2.31;;;;;;;21.41;53.22;101290.40;;;;-48
2019/09/11 14:58:35;;;;;;;5.84;2.27;;;;;;;21.40;53.19;101292.17;;;;-59
2019/09/11 15:01:35;;;;;;;4.53;2.17;;;;;;;21.40;53.13;101294.86;;;;-57
2019/09/11 15:04:35;;;;;;;3.26;2.16;;;;;;;21.41;53.10;101300.14;;;;-55
2019/09/11 15:07:35;;;;;;;4.60;2.43;;;;;;;21.41;53.13;101298.95;;;;-57
2019/09/11 15:10:35;;;;;;;2.84;2.19;;;;;;;21.43;53.06;101301.92;;;;-53
2019/09/11 15:13:35;;;;;;;4.75;2.62;;;;;;;21.42;53.05;101303.53;;;;-58
2019/09/11 15:16:35;;;;;;;3.54;2.23;;;;;;;21.42;53.11;101309.75;;;;-51
2019/09/11 15:19:35;;;;;;;3.45;2.22;;;;;;;21.40;53.06;101313.03;;;;-53
2019/09/11 15:22:35;;;;;;;5.32;2.39;;;;;;;21.41;52.99;101314.09;;;;-48
2019/09/11 15:25:35;;;;;;;2.70;2.30;;;;;;;21.40;52.98;101318.05;;;;-48
2019/09/11 15:28:35;;;;;;;3.44;2.34;;;;;;;21.40;52.97;101318.91;;;;-48
2019/09/11 15:31:35;;;;;;;4.01;2.24;;;;;;;21.37;52.91;101320.42;;;;-48
2019/09/11 15:34:35;;;;;;;4.40;2.29;;;;;;;21.37;52.88;101322.84;;;;-49
2019/09/11 15:37:35;;;;;;;2.61;2.09;;;;;;;21.36;52.87;101327.49;;;;-48
2019/09/11 15:40:35;;;;;;;2.95;2.21;;;;;;;21.35;52.84;101327.27;;;;-48
2019/09/11 15:43:35;;;;;;;3.20;2.25;;;;;;;21.33;52.85;101332.88;;;;-48
2019/09/11 15:46:35;;;;;;;3.80;2.25;;;;;;;21.32;52.88;101333.40;;;;-48
2019/09/11 15:49:35;;;;;;;2.82;2.30;;;;;;;21.32;52.86;101333.50;;;;-48
2019/09/11 15:52:36;;;;;;;3.05;2.11;;;;;;;21.33;52.81;101339.94;;;;-48
2019/09/11 15:55:35;;;;;;;2.84;2.17;;;;;;;21.31;52.82;101340.17;;;;-48
2019/09/11 15:58:35;;;;;;;3.63;2.06;;;;;;;21.31;52.84;101344.54;;;;-49
2019/09/11 16:01:35;;;;;;;3.83;2.19;;;;;;;21.31;52.81;101345.45;;;;-49
2019/09/11 16:04:35;;;;;;;2.45;2.21;;;;;;;21.29;52.83;101345.39;;;;-49
2019/09/11 16:07:35;;;;;;;2.60;2.21;;;;;;;21.28;52.83;101345.56;;;;-49
2019/09/11 16:10:35;;;;;;;3.04;2.25;;;;;;;21.29;52.87;101347.45;;;;-49
2019/09/11 16:13:35;;;;;;;3.23;2.00;;;;;;;21.28;52.87;101349.70;;;;-49
2019/09/11 16:16:35;;;;;;;2.35;2.10;;;;;;;21.28;52.83;101351.95;;;;-49
2019/09/11 16:19:35;;;;;;;4.04;2.03;;;;;;;21.28;52.83;101350.60;;;;-49
2019/09/11 16:22:35;;;;;;;5.54;2.18;;;;;;;21.28;52.87;101356.05;;;;-48
2019/09/11 16:25:35;;;;;;;3.49;2.11;;;;;;;21.26;52.92;101358.91;;;;-49
2019/09/11 16:28:35;;;;;;;2.95;2.16;;;;;;;21.27;52.86;101355.66;;;;-57
2019/09/11 16:31:35;;;;;;;5.03;2.13;;;;;;;21.26;52.82;101354.88;;;;-57
2019/09/11 16:34:35;;;;;;;2.95;2.22;;;;;;;21.26;52.89;101353.97;;;;-57
2019/09/11 16:37:35;;;;;;;2.76;2.21;;;;;;;21.26;52.88;101356.82;;;;-57
2019/09/11 16:40:35;;;;;;;3.35;2.11;;;;;;;21.28;52.83;101356.16;;;;-58